sensor_id;sensor_type;location;lat;lon;timestamp;temperature;humidity
31129;DHT22;17777;48.770;8.944;2023-04-16T00:02:20;13.60;52.20
31129;DHT22;17777;48.770;8.944;2023-04-16T00:04:46;13.60;52.10
31129;DHT22;17777;48.770;8.944;2023-04-16T00:07:12;13.60;52.10
31129;DHT22;17777;48.770;8.944;2023-04-16T00:09:37;13.60;52.20
31129;DHT22;17777;48.770;8.944;2023-04-16T00:12:04;13.50;52.10
31129;DHT22;17777;48.770;8.944;2023-04-16T00:14:30;13.60;52.10
31129;DHT22;17777;48.770;8.944;2023-04-16T00:16:56;13.60;52.10
31129;DHT22;17777;48.770;8.944;2023-04-16T00:19:22;13.60;52.40
31129;DHT22;17777;48.770;8.944;2023-04-16T00:21:47;13.60;52.40
31129;DHT22;17777;48.770;8.944;2023-04-16T00:24:13;13.60;52.40
31129;DHT22;17777;48.770;8.944;2023-04-16T00:26:39;13.60;52.30
31129;DHT22;17777;48.770;8.944;2023-04-16T00:29:05;13.60;52.40
31129;DHT22;17777;48.770;8.944;2023-04-16T00:31:32;13.60;52.40
31129;DHT22;17777;48.770;8.944;2023-04-16T00:33:58;13.60;52.50
31129;DHT22;17777;48.770;8.944;2023-04-16T00:36:25;13.60;52.50
31129;DHT22;17777;48.770;8.944;2023-04-16T00:38:52;13.60;52.60
31129;DHT22;17777;48.770;8.944;2023-04-16T00:41:18;13.60;52.60
31129;DHT22;17777;48.770;8.944;2023-04-16T00:43:44;13.60;52.50
31129;DHT22;17777;48.770;8.944;2023-04-16T00:46:11;13.60;52.70
31129;DHT22;17777;48.770;8.944;2023-04-16T00:48:37;13.60;52.60
31129;DHT22;17777;48.770;8.944;2023-04-16T00:51:05;13.60;52.70
31129;DHT22;17777;48.770;8.944;2023-04-16T00:53:33;13.60;53.40
31129;DHT22;17777;48.770;8.944;2023-04-16T00:56:02;13.60;52.70
31129;DHT22;17777;48.770;8.944;2023-04-16T00:58:29;13.60;52.80
31129;DHT22;17777;48.770;8.944;2023-04-16T01:00:55;13.60;52.70
31129;DHT22;17777;48.770;8.944;2023-04-16T01:03:22;13.60;52.80
31129;DHT22;17777;48.770;8.944;2023-04-16T01:05:49;13.60;52.80
31129;DHT22;17777;48.770;8.944;2023-04-16T01:08:20;13.60;53.00
31129;DHT22;17777;48.770;8.944;2023-04-16T01:10:46;13.50;53.80
31129;DHT22;17777;48.770;8.944;2023-04-16T01:13:12;13.60;53.60
31129;DHT22;17777;48.770;8.944;2023-04-16T01:15:38;13.50;53.00
31129;DHT22;17777;48.770;8.944;2023-04-16T01:18:17;13.50;52.90
31129;DHT22;17777;48.770;8.944;2023-04-16T01:20:44;13.50;54.00
31129;DHT22;17777;48.770;8.944;2023-04-16T01:23:11;13.50;53.10
31129;DHT22;17777;48.770;8.944;2023-04-16T01:25:37;13.50;53.10
31129;DHT22;17777;48.770;8.944;2023-04-16T01:28:03;13.50;53.10
31129;DHT22;17777;48.770;8.944;2023-04-16T01:30:30;13.50;53.20
31129;DHT22;17777;48.770;8.944;2023-04-16T01:33:09;13.50;53.10
31129;DHT22;17777;48.770;8.944;2023-04-16T01:35:36;13.50;53.30
31129;DHT22;17777;48.770;8.944;2023-04-16T01:38:03;13.50;53.20
31129;DHT22;17777;48.770;8.944;2023-04-16T01:40:30;13.50;53.20
31129;DHT22;17777;48.770;8.944;2023-04-16T01:42:56;13.50;53.30
31129;DHT22;17777;48.770;8.944;2023-04-16T01:45:22;13.50;53.30
31129;DHT22;17777;48.770;8.944;2023-04-16T01:47:48;13.50;53.20
31129;DHT22;17777;48.770;8.944;2023-04-16T01:50:16;13.50;53.30
31129;DHT22;17777;48.770;8.944;2023-04-16T01:52:42;13.50;53.30
31129;DHT22;17777;48.770;8.944;2023-04-16T01:55:09;13.50;53.30
31129;DHT22;17777;48.770;8.944;2023-04-16T01:57:35;13.50;53.40
31129;DHT22;17777;48.770;8.944;2023-04-16T02:00:03;13.50;53.50
31129;DHT22;17777;48.770;8.944;2023-04-16T02:02:30;13.40;53.40
31129;DHT22;17777;48.770;8.944;2023-04-16T02:04:57;13.40;53.40
31129;DHT22;17777;48.770;8.944;2023-04-16T02:07:23;13.40;53.40
31129;DHT22;17777;48.770;8.944;2023-04-16T02:09:49;13.40;53.40
31129;DHT22;17777;48.770;8.944;2023-04-16T02:12:16;13.40;53.40
31129;DHT22;17777;48.770;8.944;2023-04-16T02:14:42;13.40;53.40
31129;DHT22;17777;48.770;8.944;2023-04-16T02:17:09;13.50;53.50
31129;DHT22;17777;48.770;8.944;2023-04-16T02:19:37;13.50;53.50
31129;DHT22;17777;48.770;8.944;2023-04-16T02:22:03;13.50;53.40
31129;DHT22;17777;48.770;8.944;2023-04-16T02:24:29;13.50;53.50
31129;DHT22;17777;48.770;8.944;2023-04-16T02:26:56;13.50;53.50
31129;DHT22;17777;48.770;8.944;2023-04-16T02:29:23;13.50;53.50
31129;DHT22;17777;48.770;8.944;2023-04-16T02:32:03;13.50;53.60
31129;DHT22;17777;48.770;8.944;2023-04-16T02:34:31;13.50;53.60
31129;DHT22;17777;48.770;8.944;2023-04-16T02:36:58;13.50;53.60
31129;DHT22;17777;48.770;8.944;2023-04-16T02:39:24;13.50;53.60
31129;DHT22;17777;48.770;8.944;2023-04-16T02:41:51;13.40;53.80
31129;DHT22;17777;48.770;8.944;2023-04-16T02:44:18;13.40;53.90
31129;DHT22;17777;48.770;8.944;2023-04-16T02:46:44;13.40;53.80
31129;DHT22;17777;48.770;8.944;2023-04-16T02:49:10;13.40;53.80
31129;DHT22;17777;48.770;8.944;2023-04-16T02:51:36;13.40;53.80
31129;DHT22;17777;48.770;8.944;2023-04-16T02:54:02;13.40;53.90
31129;DHT22;17777;48.770;8.944;2023-04-16T02:56:28;13.40;53.90
31129;DHT22;17777;48.770;8.944;2023-04-16T02:58:54;13.40;54.30
31129;DHT22;17777;48.770;8.944;2023-04-16T03:01:20;13.40;54.00
31129;DHT22;17777;48.770;8.944;2023-04-16T03:03:46;13.30;53.90
31129;DHT22;17777;48.770;8.944;2023-04-16T03:06:12;13.30;53.90
31129;DHT22;17777;48.770;8.944;2023-04-16T03:08:38;13.30;54.00
31129;DHT22;17777;48.770;8.944;2023-04-16T03:11:03;13.40;54.00
31129;DHT22;17777;48.770;8.944;2023-04-16T03:13:29;13.40;54.00
31129;DHT22;17777;48.770;8.944;2023-04-16T03:15:55;13.40;54.00
31129;DHT22;17777;48.770;8.944;2023-04-16T03:18:21;13.40;54.00
31129;DHT22;17777;48.770;8.944;2023-04-16T03:20:52;13.40;54.00
31129;DHT22;17777;48.770;8.944;2023-04-16T03:23:18;13.40;54.20
31129;DHT22;17777;48.770;8.944;2023-04-16T03:25:44;13.40;54.00
31129;DHT22;17777;48.770;8.944;2023-04-16T03:28:13;13.40;54.60
31129;DHT22;17777;48.770;8.944;2023-04-16T03:30:39;13.40;54.00
31129;DHT22;17777;48.770;8.944;2023-04-16T03:33:07;13.40;54.00
31129;DHT22;17777;48.770;8.944;2023-04-16T03:35:33;13.40;54.00
31129;DHT22;17777;48.770;8.944;2023-04-16T03:38:00;13.40;54.00
31129;DHT22;17777;48.770;8.944;2023-04-16T03:40:26;13.40;54.00
31129;DHT22;17777;48.770;8.944;2023-04-16T03:42:52;13.40;54.10
31129;DHT22;17777;48.770;8.944;2023-04-16T03:45:18;13.40;54.30
31129;DHT22;17777;48.770;8.944;2023-04-16T03:47:46;13.40;54.00
31129;DHT22;17777;48.770;8.944;2023-04-16T03:50:20;13.40;54.00
31129;DHT22;17777;48.770;8.944;2023-04-16T03:52:46;13.40;54.40
31129;DHT22;17777;48.770;8.944;2023-04-16T03:55:14;13.40;54.10
31129;DHT22;17777;48.770;8.944;2023-04-16T03:57:40;13.30;54.10
31129;DHT22;17777;48.770;8.944;2023-04-16T04:00:10;13.30;54.20
31129;DHT22;17777;48.770;8.944;2023-04-16T04:03:09;13.30;54.20
31129;DHT22;17777;48.770;8.944;2023-04-16T04:05:39;13.30;54.10
31129;DHT22;17777;48.770;8.944;2023-04-16T04:08:08;13.30;54.40
31129;DHT22;17777;48.770;8.944;2023-04-16T04:10:36;13.30;54.30
31129;DHT22;17777;48.770;8.944;2023-04-16T04:13:05;13.30;54.20
31129;DHT22;17777;48.770;8.944;2023-04-16T04:15:32;13.30;54.40
31129;DHT22;17777;48.770;8.944;2023-04-16T04:17:58;13.30;54.30
31129;DHT22;17777;48.770;8.944;2023-04-16T04:20:24;13.30;54.40
31129;DHT22;17777;48.770;8.944;2023-04-16T04:22:51;13.30;54.30
31129;DHT22;17777;48.770;8.944;2023-04-16T04:25:20;13.30;54.20
31129;DHT22;17777;48.770;8.944;2023-04-16T04:27:45;13.30;54.20
31129;DHT22;17777;48.770;8.944;2023-04-16T04:30:11;13.30;54.30
31129;DHT22;17777;48.770;8.944;2023-04-16T04:32:38;13.30;54.30
31129;DHT22;17777;48.770;8.944;2023-04-16T04:35:04;13.30;54.20
31129;DHT22;17777;48.770;8.944;2023-04-16T04:37:31;13.30;54.30
31129;DHT22;17777;48.770;8.944;2023-04-16T04:39:57;13.30;54.40
31129;DHT22;17777;48.770;8.944;2023-04-16T04:42:23;13.30;54.40
31129;DHT22;17777;48.770;8.944;2023-04-16T04:44:49;13.30;54.40
31129;DHT22;17777;48.770;8.944;2023-04-16T04:47:16;13.30;54.40
31129;DHT22;17777;48.770;8.944;2023-04-16T04:49:42;13.30;54.40
31129;DHT22;17777;48.770;8.944;2023-04-16T04:52:08;13.30;54.40
31129;DHT22;17777;48.770;8.944;2023-04-16T04:54:33;13.30;54.60
31129;DHT22;17777;48.770;8.944;2023-04-16T04:56:59;13.30;54.50
31129;DHT22;17777;48.770;8.944;2023-04-16T04:59:27;13.30;54.50
31129;DHT22;17777;48.770;8.944;2023-04-16T05:01:53;13.30;54.50
31129;DHT22;17777;48.770;8.944;2023-04-16T05:04:19;13.20;54.50
31129;DHT22;17777;48.770;8.944;2023-04-16T05:06:44;13.20;54.50
31129;DHT22;17777;48.770;8.944;2023-04-16T05:09:10;13.20;54.60
31129;DHT22;17777;48.770;8.944;2023-04-16T05:11:40;13.20;54.80
31129;DHT22;17777;48.770;8.944;2023-04-16T05:14:07;13.20;55.00
31129;DHT22;17777;48.770;8.944;2023-04-16T05:16:35;13.20;54.80
31129;DHT22;17777;48.770;8.944;2023-04-16T05:19:01;13.20;55.00
31129;DHT22;17777;48.770;8.944;2023-04-16T05:21:27;13.20;54.90
31129;DHT22;17777;48.770;8.944;2023-04-16T05:23:52;13.20;54.90
31129;DHT22;17777;48.770;8.944;2023-04-16T05:26:18;13.20;55.00
31129;DHT22;17777;48.770;8.944;2023-04-16T05:28:44;13.10;55.00
31129;DHT22;17777;48.770;8.944;2023-04-16T05:31:10;13.10;54.50
31129;DHT22;17777;48.770;8.944;2023-04-16T05:33:35;13.20;55.10
31129;DHT22;17777;48.770;8.944;2023-04-16T05:36:01;13.10;55.10
31129;DHT22;17777;48.770;8.944;2023-04-16T05:38:27;13.10;55.20
31129;DHT22;17777;48.770;8.944;2023-04-16T05:40:54;13.10;55.30
31129;DHT22;17777;48.770;8.944;2023-04-16T05:43:20;13.10;55.40
31129;DHT22;17777;48.770;8.944;2023-04-16T05:45:46;13.00;55.20
31129;DHT22;17777;48.770;8.944;2023-04-16T05:48:12;13.00;55.30
31129;DHT22;17777;48.770;8.944;2023-04-16T05:50:38;13.00;55.20
31129;DHT22;17777;48.770;8.944;2023-04-16T05:53:05;13.10;55.30
31129;DHT22;17777;48.770;8.944;2023-04-16T05:55:32;13.10;55.50
31129;DHT22;17777;48.770;8.944;2023-04-16T05:57:58;13.10;55.40
31129;DHT22;17777;48.770;8.944;2023-04-16T06:00:24;13.10;55.60
31129;DHT22;17777;48.770;8.944;2023-04-16T06:02:50;13.00;55.40
31129;DHT22;17777;48.770;8.944;2023-04-16T06:05:16;13.00;55.70
31129;DHT22;17777;48.770;8.944;2023-04-16T06:07:41;13.00;55.50
31129;DHT22;17777;48.770;8.944;2023-04-16T06:10:07;13.00;55.50
31129;DHT22;17777;48.770;8.944;2023-04-16T06:12:34;13.00;55.60
31129;DHT22;17777;48.770;8.944;2023-04-16T06:15:00;13.00;55.60
31129;DHT22;17777;48.770;8.944;2023-04-16T06:17:26;13.00;55.70
31129;DHT22;17777;48.770;8.944;2023-04-16T06:19:52;13.00;55.80
31129;DHT22;17777;48.770;8.944;2023-04-16T06:22:17;13.00;55.70
31129;DHT22;17777;48.770;8.944;2023-04-16T06:24:43;13.00;55.80
31129;DHT22;17777;48.770;8.944;2023-04-16T06:27:09;13.00;55.70
31129;DHT22;17777;48.770;8.944;2023-04-16T06:29:35;13.00;55.70
31129;DHT22;17777;48.770;8.944;2023-04-16T06:32:01;13.00;55.70
31129;DHT22;17777;48.770;8.944;2023-04-16T06:34:28;13.00;55.80
31129;DHT22;17777;48.770;8.944;2023-04-16T06:36:54;13.00;55.80
31129;DHT22;17777;48.770;8.944;2023-04-16T06:39:20;13.00;55.70
31129;DHT22;17777;48.770;8.944;2023-04-16T06:41:48;13.10;55.70
31129;DHT22;17777;48.770;8.944;2023-04-16T06:44:14;13.10;56.10
31129;DHT22;17777;48.770;8.944;2023-04-16T06:46:40;13.00;55.70
31129;DHT22;17777;48.770;8.944;2023-04-16T06:49:06;13.00;55.70
31129;DHT22;17777;48.770;8.944;2023-04-16T06:51:32;13.00;55.90
31129;DHT22;17777;48.770;8.944;2023-04-16T06:53:58;13.00;55.80
31129;DHT22;17777;48.770;8.944;2023-04-16T06:56:24;13.10;55.80
31129;DHT22;17777;48.770;8.944;2023-04-16T06:58:50;13.10;55.80
31129;DHT22;17777;48.770;8.944;2023-04-16T07:01:16;13.10;55.80
31129;DHT22;17777;48.770;8.944;2023-04-16T07:03:42;13.10;55.80
31129;DHT22;17777;48.770;8.944;2023-04-16T07:06:08;13.10;55.90
31129;DHT22;17777;48.770;8.944;2023-04-16T07:08:34;13.10;55.80
31129;DHT22;17777;48.770;8.944;2023-04-16T07:11:00;13.10;55.70
31129;DHT22;17777;48.770;8.944;2023-04-16T07:13:26;13.10;55.70
31129;DHT22;17777;48.770;8.944;2023-04-16T07:15:52;13.10;55.80
31129;DHT22;17777;48.770;8.944;2023-04-16T07:18:18;13.10;55.80
31129;DHT22;17777;48.770;8.944;2023-04-16T07:20:44;13.10;55.70
31129;DHT22;17777;48.770;8.944;2023-04-16T07:23:10;13.10;55.80
31129;DHT22;17777;48.770;8.944;2023-04-16T07:25:36;13.10;55.70
31129;DHT22;17777;48.770;8.944;2023-04-16T07:28:02;13.10;55.70
31129;DHT22;17777;48.770;8.944;2023-04-16T07:30:28;13.10;55.70
31129;DHT22;17777;48.770;8.944;2023-04-16T07:33:02;13.20;55.80
31129;DHT22;17777;48.770;8.944;2023-04-16T07:35:29;13.20;56.10
31129;DHT22;17777;48.770;8.944;2023-04-16T07:37:55;13.20;55.80
31129;DHT22;17777;48.770;8.944;2023-04-16T07:40:22;13.20;55.80
31129;DHT22;17777;48.770;8.944;2023-04-16T07:42:49;13.20;55.70
31129;DHT22;17777;48.770;8.944;2023-04-16T07:45:16;13.20;55.70
31129;DHT22;17777;48.770;8.944;2023-04-16T07:47:42;13.20;55.70
31129;DHT22;17777;48.770;8.944;2023-04-16T07:50:08;13.20;55.80
31129;DHT22;17777;48.770;8.944;2023-04-16T07:52:34;13.20;55.80
31129;DHT22;17777;48.770;8.944;2023-04-16T07:55:01;13.20;55.90
31129;DHT22;17777;48.770;8.944;2023-04-16T07:57:27;13.20;55.80
31129;DHT22;17777;48.770;8.944;2023-04-16T07:59:53;13.20;55.90
31129;DHT22;17777;48.770;8.944;2023-04-16T08:02:19;13.20;56.00
31129;DHT22;17777;48.770;8.944;2023-04-16T08:04:44;13.20;55.90
31129;DHT22;17777;48.770;8.944;2023-04-16T08:07:10;13.20;55.80
31129;DHT22;17777;48.770;8.944;2023-04-16T08:09:46;13.20;55.80
31129;DHT22;17777;48.770;8.944;2023-04-16T08:12:13;13.20;56.30
31129;DHT22;17777;48.770;8.944;2023-04-16T08:14:39;13.20;55.70
31129;DHT22;17777;48.770;8.944;2023-04-16T08:17:05;13.20;55.70
31129;DHT22;17777;48.770;8.944;2023-04-16T08:19:31;13.20;55.80
31129;DHT22;17777;48.770;8.944;2023-04-16T08:21:57;13.30;55.80
31129;DHT22;17777;48.770;8.944;2023-04-16T08:24:23;13.30;55.80
31129;DHT22;17777;48.770;8.944;2023-04-16T08:26:49;13.30;55.80
31129;DHT22;17777;48.770;8.944;2023-04-16T08:29:15;13.30;55.80
31129;DHT22;17777;48.770;8.944;2023-04-16T08:31:41;13.30;55.70
31129;DHT22;17777;48.770;8.944;2023-04-16T08:34:06;13.30;55.80
31129;DHT22;17777;48.770;8.944;2023-04-16T08:36:32;13.30;56.40
31129;DHT22;17777;48.770;8.944;2023-04-16T08:38:58;13.30;55.80
31129;DHT22;17777;48.770;8.944;2023-04-16T08:41:25;13.30;55.80
31129;DHT22;17777;48.770;8.944;2023-04-16T08:43:52;13.40;55.90
31129;DHT22;17777;48.770;8.944;2023-04-16T08:46:22;13.30;55.90
31129;DHT22;17777;48.770;8.944;2023-04-16T08:48:53;13.40;55.90
31129;DHT22;17777;48.770;8.944;2023-04-16T08:51:22;13.40;55.90
31129;DHT22;17777;48.770;8.944;2023-04-16T08:53:52;13.30;55.80
31129;DHT22;17777;48.770;8.944;2023-04-16T08:56:20;13.30;55.80
31129;DHT22;17777;48.770;8.944;2023-04-16T08:58:49;13.40;55.90
31129;DHT22;17777;48.770;8.944;2023-04-16T09:01:19;13.40;56.00
31129;DHT22;17777;48.770;8.944;2023-04-16T09:03:46;13.40;56.20
31129;DHT22;17777;48.770;8.944;2023-04-16T09:06:13;13.40;56.00
31129;DHT22;17777;48.770;8.944;2023-04-16T09:08:40;13.40;56.00
31129;DHT22;17777;48.770;8.944;2023-04-16T09:11:08;13.40;56.00
31129;DHT22;17777;48.770;8.944;2023-04-16T09:13:36;13.40;56.00
31129;DHT22;17777;48.770;8.944;2023-04-16T09:16:03;13.40;56.10
31129;DHT22;17777;48.770;8.944;2023-04-16T09:18:30;13.50;56.10
31129;DHT22;17777;48.770;8.944;2023-04-16T09:20:56;13.50;56.00
31129;DHT22;17777;48.770;8.944;2023-04-16T09:23:22;13.50;56.00
31129;DHT22;17777;48.770;8.944;2023-04-16T09:25:49;13.50;56.00
31129;DHT22;17777;48.770;8.944;2023-04-16T09:28:44;13.50;55.90
31129;DHT22;17777;48.770;8.944;2023-04-16T09:31:13;13.50;56.70
31129;DHT22;17777;48.770;8.944;2023-04-16T09:33:41;13.50;56.00
31129;DHT22;17777;48.770;8.944;2023-04-16T09:36:08;13.50;56.00
31129;DHT22;17777;48.770;8.944;2023-04-16T09:38:48;13.50;56.20
31129;DHT22;17777;48.770;8.944;2023-04-16T09:41:14;13.50;56.60
31129;DHT22;17777;48.770;8.944;2023-04-16T09:44:09;13.50;56.00
31129;DHT22;17777;48.770;8.944;2023-04-16T09:46:44;13.50;56.80
31129;DHT22;17777;48.770;8.944;2023-04-16T09:49:13;13.60;56.50
31129;DHT22;17777;48.770;8.944;2023-04-16T09:51:41;13.60;56.20
31129;DHT22;17777;48.770;8.944;2023-04-16T09:54:07;13.60;56.10
31129;DHT22;17777;48.770;8.944;2023-04-16T09:56:42;13.60;56.10
31129;DHT22;17777;48.770;8.944;2023-04-16T09:59:19;13.60;56.30
31129;DHT22;17777;48.770;8.944;2023-04-16T10:01:46;13.60;56.40
31129;DHT22;17777;48.770;8.944;2023-04-16T10:04:14;13.60;56.10
31129;DHT22;17777;48.770;8.944;2023-04-16T10:06:40;13.60;56.00
31129;DHT22;17777;48.770;8.944;2023-04-16T10:09:07;13.60;56.10
31129;DHT22;17777;48.770;8.944;2023-04-16T10:11:33;13.60;56.10
31129;DHT22;17777;48.770;8.944;2023-04-16T10:13:59;13.60;56.20
31129;DHT22;17777;48.770;8.944;2023-04-16T10:16:26;13.60;56.10
31129;DHT22;17777;48.770;8.944;2023-04-16T10:18:52;13.60;56.20
31129;DHT22;17777;48.770;8.944;2023-04-16T10:21:21;13.60;56.20
31129;DHT22;17777;48.770;8.944;2023-04-16T10:23:47;13.50;56.10
31129;DHT22;17777;48.770;8.944;2023-04-16T10:26:17;13.60;56.10
31129;DHT22;17777;48.770;8.944;2023-04-16T10:28:44;13.60;56.20
31129;DHT22;17777;48.770;8.944;2023-04-16T10:31:10;13.60;56.30
31129;DHT22;17777;48.770;8.944;2023-04-16T10:33:39;13.60;56.30
31129;DHT22;17777;48.770;8.944;2023-04-16T10:36:11;13.60;56.50
31129;DHT22;17777;48.770;8.944;2023-04-16T10:38:39;13.60;56.30
31129;DHT22;17777;48.770;8.944;2023-04-16T10:41:06;13.70;56.30
31129;DHT22;17777;48.770;8.944;2023-04-16T10:44:02;13.70;56.30
31129;DHT22;17777;48.770;8.944;2023-04-16T10:46:36;13.70;56.90
31129;DHT22;17777;48.770;8.944;2023-04-16T10:49:17;13.70;56.50
31129;DHT22;17777;48.770;8.944;2023-04-16T10:51:53;13.70;56.70
31129;DHT22;17777;48.770;8.944;2023-04-16T10:54:37;13.80;56.50
31129;DHT22;17777;48.770;8.944;2023-04-16T10:57:06;13.80;56.20
31129;DHT22;17777;48.770;8.944;2023-04-16T10:59:34;13.80;56.30
31129;DHT22;17777;48.770;8.944;2023-04-16T11:02:06;13.80;56.30
31129;DHT22;17777;48.770;8.944;2023-04-16T11:04:38;13.80;56.70
31129;DHT22;17777;48.770;8.944;2023-04-16T11:12:22;13.90;56.80
31129;DHT22;17777;48.770;8.944;2023-04-16T11:15:00;13.90;56.70
31129;DHT22;17777;48.770;8.944;2023-04-16T11:17:48;13.90;56.40
31129;DHT22;17777;48.770;8.944;2023-04-16T11:22:51;13.90;56.70
31129;DHT22;17777;48.770;8.944;2023-04-16T11:25:29;13.90;56.50
31129;DHT22;17777;48.770;8.944;2023-04-16T11:27:56;13.90;57.10
31129;DHT22;17777;48.770;8.944;2023-04-16T11:30:30;13.90;56.50
31129;DHT22;17777;48.770;8.944;2023-04-16T11:35:29;13.90;56.80
31129;DHT22;17777;48.770;8.944;2023-04-16T11:37:56;13.90;56.70
31129;DHT22;17777;48.770;8.944;2023-04-16T11:40:22;14.00;56.80
31129;DHT22;17777;48.770;8.944;2023-04-16T11:42:48;14.00;56.90
31129;DHT22;17777;48.770;8.944;2023-04-16T11:45:14;14.00;56.70
31129;DHT22;17777;48.770;8.944;2023-04-16T11:47:46;14.00;56.60
31129;DHT22;17777;48.770;8.944;2023-04-16T11:50:27;14.00;56.90
31129;DHT22;17777;48.770;8.944;2023-04-16T11:52:55;14.10;57.20
31129;DHT22;17777;48.770;8.944;2023-04-16T11:55:22;14.10;56.80
31129;DHT22;17777;48.770;8.944;2023-04-16T11:57:49;14.20;56.70
31129;DHT22;17777;48.770;8.944;2023-04-16T12:00:15;14.10;56.70
31129;DHT22;17777;48.770;8.944;2023-04-16T12:02:48;14.20;56.70
31129;DHT22;17777;48.770;8.944;2023-04-16T12:08:02;14.20;57.40
31129;DHT22;17777;48.770;8.944;2023-04-16T12:10:29;14.20;56.80
31129;DHT22;17777;48.770;8.944;2023-04-16T12:13:15;14.20;57.00
31129;DHT22;17777;48.770;8.944;2023-04-16T12:15:49;14.30;57.10
31129;DHT22;17777;48.770;8.944;2023-04-16T12:18:17;14.30;56.60
31129;DHT22;17777;48.770;8.944;2023-04-16T12:20:45;14.30;56.50
31129;DHT22;17777;48.770;8.944;2023-04-16T12:23:33;14.30;57.10
31129;DHT22;17777;48.770;8.944;2023-04-16T12:26:09;14.30;57.10
31129;DHT22;17777;48.770;8.944;2023-04-16T12:28:36;14.40;56.70
31129;DHT22;17777;48.770;8.944;2023-04-16T12:31:06;14.40;56.40
31129;DHT22;17777;48.770;8.944;2023-04-16T12:33:31;14.40;56.40
31129;DHT22;17777;48.770;8.944;2023-04-16T12:35:57;14.40;56.40
31129;DHT22;17777;48.770;8.944;2023-04-16T12:38:23;14.40;56.40
31129;DHT22;17777;48.770;8.944;2023-04-16T12:40:50;14.40;56.50
31129;DHT22;17777;48.770;8.944;2023-04-16T12:43:16;14.40;56.50
31129;DHT22;17777;48.770;8.944;2023-04-16T12:45:42;14.40;56.50
31129;DHT22;17777;48.770;8.944;2023-04-16T12:48:08;14.40;56.60
31129;DHT22;17777;48.770;8.944;2023-04-16T12:50:33;14.40;56.60
31129;DHT22;17777;48.770;8.944;2023-04-16T12:52:59;14.40;56.50
31129;DHT22;17777;48.770;8.944;2023-04-16T12:55:25;14.40;56.60
31129;DHT22;17777;48.770;8.944;2023-04-16T12:57:51;14.40;56.40
31129;DHT22;17777;48.770;8.944;2023-04-16T13:00:17;14.40;56.40
31129;DHT22;17777;48.770;8.944;2023-04-16T13:02:44;14.40;56.50
31129;DHT22;17777;48.770;8.944;2023-04-16T13:05:10;14.40;56.50
31129;DHT22;17777;48.770;8.944;2023-04-16T13:07:37;14.40;56.60
31129;DHT22;17777;48.770;8.944;2023-04-16T13:10:04;14.40;56.60
31129;DHT22;17777;48.770;8.944;2023-04-16T13:12:30;14.40;56.70
31129;DHT22;17777;48.770;8.944;2023-04-16T13:14:57;14.40;56.70
31129;DHT22;17777;48.770;8.944;2023-04-16T13:17:23;14.40;56.60
31129;DHT22;17777;48.770;8.944;2023-04-16T13:19:49;14.40;56.70
31129;DHT22;17777;48.770;8.944;2023-04-16T13:22:15;14.40;56.70
31129;DHT22;17777;48.770;8.944;2023-04-16T13:24:40;14.40;56.70
31129;DHT22;17777;48.770;8.944;2023-04-16T13:27:06;14.50;56.80
31129;DHT22;17777;48.770;8.944;2023-04-16T13:29:33;14.50;56.70
31129;DHT22;17777;48.770;8.944;2023-04-16T13:32:01;14.50;56.70
31129;DHT22;17777;48.770;8.944;2023-04-16T13:34:27;14.50;56.70
31129;DHT22;17777;48.770;8.944;2023-04-16T13:36:53;14.40;56.60
31129;DHT22;17777;48.770;8.944;2023-04-16T13:39:19;14.50;56.80
31129;DHT22;17777;48.770;8.944;2023-04-16T13:41:45;14.50;56.60
31129;DHT22;17777;48.770;8.944;2023-04-16T13:44:13;14.40;56.60
31129;DHT22;17777;48.770;8.944;2023-04-16T13:46:39;14.50;56.70
31129;DHT22;17777;48.770;8.944;2023-04-16T13:49:05;14.40;56.60
31129;DHT22;17777;48.770;8.944;2023-04-16T13:51:31;14.40;56.60
31129;DHT22;17777;48.770;8.944;2023-04-16T13:53:57;14.40;56.60
31129;DHT22;17777;48.770;8.944;2023-04-16T13:56:23;14.40;56.60
31129;DHT22;17777;48.770;8.944;2023-04-16T13:58:49;14.40;56.70
31129;DHT22;17777;48.770;8.944;2023-04-16T14:01:16;14.40;56.70
31129;DHT22;17777;48.770;8.944;2023-04-16T14:03:42;14.40;56.70
31129;DHT22;17777;48.770;8.944;2023-04-16T14:06:08;14.40;56.80
31129;DHT22;17777;48.770;8.944;2023-04-16T14:08:33;14.40;56.70
31129;DHT22;17777;48.770;8.944;2023-04-16T14:10:59;14.40;56.80
31129;DHT22;17777;48.770;8.944;2023-04-16T14:13:26;14.40;56.80
31129;DHT22;17777;48.770;8.944;2023-04-16T14:15:54;14.50;56.80
31129;DHT22;17777;48.770;8.944;2023-04-16T14:18:20;14.50;57.00
31129;DHT22;17777;48.770;8.944;2023-04-16T14:20:46;14.40;57.40
31129;DHT22;17777;48.770;8.944;2023-04-16T14:23:12;14.50;56.80
31129;DHT22;17777;48.770;8.944;2023-04-16T14:25:38;14.50;56.80
31129;DHT22;17777;48.770;8.944;2023-04-16T14:28:04;14.50;56.80
31129;DHT22;17777;48.770;8.944;2023-04-16T14:30:30;14.50;56.80
31129;DHT22;17777;48.770;8.944;2023-04-16T14:32:55;14.50;56.80
31129;DHT22;17777;48.770;8.944;2023-04-16T14:35:22;14.50;56.80
31129;DHT22;17777;48.770;8.944;2023-04-16T14:37:48;14.50;56.80
31129;DHT22;17777;48.770;8.944;2023-04-16T14:40:14;14.50;56.80
31129;DHT22;17777;48.770;8.944;2023-04-16T14:42:40;14.50;56.80
31129;DHT22;17777;48.770;8.944;2023-04-16T14:45:06;14.50;56.80
31129;DHT22;17777;48.770;8.944;2023-04-16T14:47:33;14.50;56.80
31129;DHT22;17777;48.770;8.944;2023-04-16T14:49:59;14.50;56.80
31129;DHT22;17777;48.770;8.944;2023-04-16T14:52:26;14.50;56.80
31129;DHT22;17777;48.770;8.944;2023-04-16T14:54:52;14.50;56.80
31129;DHT22;17777;48.770;8.944;2023-04-16T14:57:21;14.50;56.90
31129;DHT22;17777;48.770;8.944;2023-04-16T14:59:47;14.50;56.80
31129;DHT22;17777;48.770;8.944;2023-04-16T15:02:13;14.50;56.80
31129;DHT22;17777;48.770;8.944;2023-04-16T15:04:39;14.50;56.80
31129;DHT22;17777;48.770;8.944;2023-04-16T15:07:05;14.50;56.90
31129;DHT22;17777;48.770;8.944;2023-04-16T15:09:33;14.50;56.90
31129;DHT22;17777;48.770;8.944;2023-04-16T15:11:59;14.50;56.90
31129;DHT22;17777;48.770;8.944;2023-04-16T15:14:25;14.50;56.80
31129;DHT22;17777;48.770;8.944;2023-04-16T15:16:51;14.50;56.90
31129;DHT22;17777;48.770;8.944;2023-04-16T15:19:17;14.40;56.90
31129;DHT22;17777;48.770;8.944;2023-04-16T15:21:43;14.50;57.00
31129;DHT22;17777;48.770;8.944;2023-04-16T15:24:09;14.40;57.00
31129;DHT22;17777;48.770;8.944;2023-04-16T15:26:35;14.40;57.00
31129;DHT22;17777;48.770;8.944;2023-04-16T15:29:01;14.40;57.10
31129;DHT22;17777;48.770;8.944;2023-04-16T15:31:26;14.40;57.10
31129;DHT22;17777;48.770;8.944;2023-04-16T15:33:52;14.40;57.20
31129;DHT22;17777;48.770;8.944;2023-04-16T15:36:19;14.40;57.20
31129;DHT22;17777;48.770;8.944;2023-04-16T15:38:45;14.40;57.30
31129;DHT22;17777;48.770;8.944;2023-04-16T15:41:11;14.40;57.30
31129;DHT22;17777;48.770;8.944;2023-04-16T15:43:37;14.40;57.40
31129;DHT22;17777;48.770;8.944;2023-04-16T15:46:03;14.40;57.40